Time;durP1;ratioP1;P1;durP2;ratioP2;P2;SDS_P1;SDS_P2;PMS_P1;PMS_P2;Temp;Humidity;BMP_temperature;BMP_pressure;BME280_temperature;BME280_humidity;BME280_pressure;Samples;Min_cycle;Max_cycle;Signal;HPM_P1;HPM_P2
2023/03/25 00:00:15;;;;;;;12.83;8.77;;;;;;;8.63;72.73;96795.31;4930728;29;20193;-74
2023/03/25 00:02:47;;;;;;;11.83;8.87;;;;;;;8.73;72.90;96789.69;4930349;29;20203;-73
2023/03/25 00:05:16;;;;;;;12.00;8.90;;;;;;;8.85;72.13;96789.16;4929823;29;20202;-75
2023/03/25 00:07:44;;;;;;;13.30;11.13;;;;;;;8.75;73.01;96793.06;4930900;29;20278;-76
2023/03/25 00:10:12;;;;;;;13.93;10.33;;;;;;;8.70;72.59;96779.47;4929330;29;20610;-74
2023/03/25 00:12:41;;;;;;;13.23;10.00;;;;;;;8.62;72.93;96758.31;4913548;29;20202;-74
2023/03/25 00:15:10;;;;;;;12.97;9.80;;;;;;;8.81;72.81;96781.63;4929152;29;20939;-76
2023/03/25 00:17:38;;;;;;;12.33;10.33;;;;;;;8.82;73.51;96783.31;4930557;29;20234;-74
2023/03/25 00:20:10;;;;;;;12.63;9.20;;;;;;;8.79;72.92;96773.09;4930523;29;20249;-77
2023/03/25 00:22:43;;;;;;;14.07;10.13;;;;;;;8.68;73.03;96763.22;4912209;29;20208;-77
2023/03/25 00:25:17;;;;;;;12.57;9.53;;;;;;;8.42;73.52;96729.09;4930799;29;21106;-78
2023/03/25 00:27:47;;;;;;;15.33;10.70;;;;;;;8.75;73.03;96766.38;4929061;29;20236;-78
2023/03/25 00:30:17;;;;;;;13.40;9.47;;;;;;;8.75;73.16;96758.66;4930882;29;20202;-78
2023/03/25 00:32:48;;;;;;;14.87;10.40;;;;;;;8.84;73.04;96753.09;4912996;29;20216;-78
2023/03/25 00:35:20;;;;;;;14.93;9.97;;;;;;;8.82;73.21;96739.41;4929539;29;20217;-78
2023/03/25 00:37:51;;;;;;;12.03;9.97;;;;;;;8.72;72.96;96740.69;4930583;29;20204;-78
2023/03/25 00:40:18;;;;;;;14.07;9.53;;;;;;;8.61;73.70;96730.00;4911938;29;20253;-79
2023/03/25 00:42:49;;;;;;;13.00;9.37;;;;;;;8.77;73.64;96741.34;4913340;29;20257;-74
2023/03/25 00:45:16;;;;;;;11.47;9.23;;;;;;;8.79;73.05;96745.53;4928924;29;20201;-78
2023/03/25 00:47:43;;;;;;;14.20;9.77;;;;;;;8.49;73.69;96700.38;4913333;29;20213;-79
2023/03/25 00:50:10;;;;;;;13.83;9.47;;;;;;;8.62;73.48;96731.66;4929671;29;20555;-79
2023/03/25 00:52:37;;;;;;;15.20;10.37;;;;;;;8.48;73.56;96731.44;4912367;29;20251;-76
2023/03/25 00:55:05;;;;;;;13.60;10.33;;;;;;;8.20;75.06;96718.84;4931585;29;20703;-76
2023/03/25 00:57:33;;;;;;;14.90;11.37;;;;;;;7.99;75.33;96711.97;4928559;29;20194;-77
2023/03/25 01:00:00;;;;;;;13.73;10.00;;;;;;;8.00;75.28;96704.16;4930104;29;20722;-77
2023/03/25 01:02:29;;;;;;;13.63;9.50;;;;;;;8.05;76.29;96722.03;4928733;29;20233;-78
2023/03/25 01:04:58;;;;;;;15.03;10.27;;;;;;;8.18;75.80;96718.88;4930291;29;20206;-77
2023/03/25 01:07:28;;;;;;;11.67;9.43;;;;;;;8.18;74.55;96712.91;4912467;29;20198;-77
2023/03/25 01:09:55;;;;;;;14.77;10.57;;;;;;;8.17;74.52;96727.53;4929082;29;20190;-78
2023/03/25 01:12:23;;;;;;;11.87;8.93;;;;;;;8.08;74.41;96706.41;4930178;29;20682;-79
2023/03/25 01:14:51;;;;;;;13.60;9.93;;;;;;;8.14;74.72;96717.31;4911795;29;20333;-79
2023/03/25 01:17:18;;;;;;;12.73;9.37;;;;;;;8.02;74.94;96681.72;4930221;29;20249;-79
2023/03/25 01:19:45;;;;;;;11.83;8.87;;;;;;;8.26;74.21;96695.38;4928829;29;20225;-79
2023/03/25 01:22:12;;;;;;;14.20;9.57;;;;;;;8.31;73.79;96692.59;4929958;29;20204;-78
2023/03/25 01:24:41;;;;;;;12.67;9.60;;;;;;;8.34;73.60;96695.91;4930806;29;20190;-80
2023/03/25 01:27:08;;;;;;;13.40;9.73;;;;;;;8.50;72.49;96688.31;4932734;29;20234;-79
2023/03/25 01:29:35;;;;;;;13.93;9.93;;;;;;;8.61;72.20;96689.56;4933741;29;20205;-80
2023/03/25 01:32:02;;;;;;;13.53;10.43;;;;;;;8.67;72.16;96685.88;4932668;29;20647;-79
2023/03/25 01:34:32;;;;;;;12.33;11.00;;;;;;;8.68;71.75;96675.47;4934052;29;20202;-80
2023/03/25 01:36:59;;;;;;;15.77;11.33;;;;;;;8.53;71.59;96680.47;4914890;29;20214;-81
2023/03/25 01:39:26;;;;;;;12.30;11.00;;;;;;;8.34;73.02;96679.56;4933478;29;20704;-79
2023/03/25 01:41:54;;;;;;;14.47;11.40;;;;;;;8.28;72.66;96677.25;4932672;29;20676;-79
2023/03/25 01:44:21;;;;;;;15.10;11.03;;;;;;;8.10;73.19;96684.81;4932612;29;20708;-78
2023/03/25 01:46:51;;;;;;;16.77;11.43;;;;;;;7.78;74.64;96677.59;4933286;29;20201;-77
2023/03/25 01:49:39;;;;;;;13.90;10.13;;;;;;;7.75;74.34;96666.56;4931844;29;20201;-79
2023/03/25 01:52:15;;;;;;;12.93;9.93;;;;;;;7.78;74.86;96664.69;4933929;29;20190;-78
2023/03/25 01:54:44;;;;;;;11.80;9.33;;;;;;;7.82;74.53;96676.56;4932289;29;20221;-78
2023/03/25 01:57:17;;;;;;;12.97;9.83;;;;;;;7.73;74.39;96673.53;4916940;29;20205;-74
2023/03/25 01:59:44;;;;;;;14.20;10.07;;;;;;;7.69;74.12;96662.50;4933379;29;20226;-76
2023/03/25 02:02:14;;;;;;;12.30;9.87;;;;;;;7.62;75.85;96670.53;4932273;29;20190;-75
2023/03/25 02:04:41;;;;;;;15.67;8.97;;;;;;;7.59;75.63;96661.19;4933179;29;20221;-75
2023/03/25 02:07:09;;;;;;;12.60;8.40;;;;;;;7.72;75.42;96666.69;4914551;29;20200;-76
2023/03/25 02:09:37;;;;;;;13.87;8.63;;;;;;;7.61;75.87;96661.97;4933413;29;20200;-75
2023/03/25 02:12:06;;;;;;;12.93;9.57;;;;;;;7.59;75.69;96666.34;4932040;29;20203;-77
2023/03/25 02:14:36;;;;;;;14.43;9.97;;;;;;;7.43;76.47;96659.28;4916019;29;20257;-78
2023/03/25 02:17:32;;;;;;;12.43;8.97;;;;;;;7.48;76.07;96658.19;4918622;29;20211;-77
2023/03/25 02:20:21;;;;;;;14.13;9.87;;;;;;;7.31;76.92;96660.59;4931377;29;20583;-75
2023/03/25 02:22:54;;;;;;;15.23;10.10;;;;;;;7.13;76.91;96654.41;4932680;29;20216;-76
2023/03/25 02:25:24;;;;;;;13.70;9.83;;;;;;;7.06;77.47;96644.41;4914551;29;20672;-78
2023/03/25 02:28:13;;;;;;;12.70;9.80;;;;;;;7.02;78.14;96653.16;4914362;29;20205;-78
2023/03/25 02:30:47;;;;;;;14.77;9.90;;;;;;;6.96;77.97;96645.66;4915192;29;20192;-76
2023/03/25 02:33:32;;;;;;;15.37;10.53;;;;;;;7.10;78.78;96645.97;4930810;29;20199;-76
2023/03/25 02:36:14;;;;;;;20.47;11.90;;;;;;;7.10;78.65;96644.25;4914728;29;20223;-79
2023/03/25 02:38:56;;;;;;;15.60;11.07;;;;;;;7.14;78.26;96644.97;4915573;29;20201;-78
2023/03/25 02:41:45;;;;;;;14.60;11.00;;;;;;;7.25;77.97;96643.63;4931355;29;20679;-78
2023/03/25 02:44:24;;;;;;;18.30;12.13;;;;;;;7.45;76.84;96640.28;4915457;29;20197;-76
2023/03/25 02:46:56;;;;;;;20.67;13.47;;;;;;;7.48;76.85;96647.06;4931597;29;20255;-79
2023/03/25 02:49:33;;;;;;;16.03;11.93;;;;;;;7.45;77.43;96637.72;4914408;29;20253;-74
2023/03/25 02:52:04;;;;;;;16.73;13.23;;;;;;;7.27;77.47;96623.00;4932404;29;20280;-73
2023/03/25 02:54:35;;;;;;;17.97;12.73;;;;;;;7.27;77.75;96630.72;4930771;29;20200;-76
2023/03/25 02:57:06;;;;;;;16.40;13.50;;;;;;;7.09;78.17;96590.25;4915109;29;20279;-75
2023/03/25 02:59:37;;;;;;;16.70;12.47;;;;;;;7.16;78.38;96609.69;4913328;29;20295;-76
2023/03/25 03:02:07;;;;;;;19.67;13.00;;;;;;;7.30;78.43;96620.28;4931764;29;20214;-77
2023/03/25 03:04:50;;;;;;;22.77;13.67;;;;;;;7.29;78.15;96618.63;4914775;29;20204;-77
2023/03/25 03:07:24;;;;;;;19.27;13.40;;;;;;;7.39;77.39;96617.34;4913317;29;20711;-79
2023/03/25 03:10:24;;;;;;;17.13;12.43;;;;;;;7.35;76.79;96590.03;4914813;29;20199;-77
2023/03/25 03:13:00;;;;;;;19.30;13.07;;;;;;;7.53;77.32;96609.91;4930906;29;20560;-77
2023/03/25 03:15:30;;;;;;;18.47;14.00;;;;;;;7.44;77.25;96609.44;4926402;29;20220;-77
2023/03/25 03:18:03;;;;;;;21.20;13.80;;;;;;;7.30;77.18;96613.41;4923614;29;20253;-75
2023/03/25 03:20:54;;;;;;;19.00;12.67;;;;;;;7.38;77.14;96615.66;4930020;29;20193;-75
2023/03/25 03:23:27;;;;;;;16.97;12.87;;;;;;;7.07;77.16;96554.25;4912398;29;20198;-75
2023/03/25 03:26:03;;;;;;;17.43;12.17;;;;;;;7.31;77.26;96603.94;4908441;29;20248;-75
2023/03/25 03:28:47;;;;;;;14.63;11.50;;;;;;;7.22;78.15;96601.72;4911464;29;20196;-78
2023/03/25 03:31:35;;;;;;;16.57;11.07;;;;;;;7.19;78.59;96605.25;4900260;29;20193;-73
2023/03/25 03:34:35;;;;;;;18.07;11.93;;;;;;;7.39;76.88;96607.91;4910995;29;20194;-74
2023/03/25 03:37:04;;;;;;;14.30;11.20;;;;;;;7.31;77.40;96603.94;4909792;29;20280;-75
2023/03/25 03:39:35;;;;;;;15.80;11.33;;;;;;;7.01;77.72;96566.50;4910851;29;20612;-80
2023/03/25 03:42:31;;;;;;;15.60;11.80;;;;;;;7.09;76.99;96582.53;4910711;29;20191;-76
2023/03/25 03:45:05;;;;;;;14.23;11.50;;;;;;;7.00;77.90;96596.59;4912329;29;20880;-78
2023/03/25 03:47:38;;;;;;;17.10;11.40;;;;;;;6.97;78.71;96588.97;4910676;29;20661;-74
2023/03/25 03:50:13;;;;;;;16.87;11.83;;;;;;;7.00;78.25;96593.19;4910875;29;20186;-74
2023/03/25 03:52:51;;;;;;;15.63;12.67;;;;;;;6.86;78.74;96582.56;4895046;29;20232;-74
2023/03/25 03:55:31;;;;;;;20.53;12.00;;;;;;;7.03;78.23;96596.47;4910519;29;20291;-74
2023/03/25 03:58:09;;;;;;;15.57;10.60;;;;;;;7.21;78.08;96597.50;4911915;29;20207;-74
2023/03/25 04:00:48;;;;;;;15.97;10.43;;;;;;;7.10;77.65;96584.19;4911130;29;20715;-74
2023/03/25 04:03:27;;;;;;;17.40;11.30;;;;;;;7.24;77.85;96594.78;4910855;29;20197;-76
2023/03/25 04:06:06;;;;;;;16.17;11.90;;;;;;;7.18;78.51;96600.16;4911950;29;20212;-77
2023/03/25 04:08:41;;;;;;;14.17;11.23;;;;;;;7.31;76.64;96593.66;4910305;29;20236;-75
2023/03/25 04:11:18;;;;;;;22.13;12.97;;;;;;;7.50;76.34;96598.91;4911844;29;20197;-77
2023/03/25 04:13:49;;;;;;;16.03;11.50;;;;;;;7.61;74.65;96592.38;4911514;29;20642;-76
2023/03/25 04:16:16;;;;;;;17.57;12.43;;;;;;;7.56;74.01;96576.28;4910583;29;20249;-75
2023/03/25 04:18:46;;;;;;;16.03;11.27;;;;;;;7.78;74.30;96595.13;4911681;29;20299;-76
2023/03/25 04:21:14;;;;;;;16.37;10.67;;;;;;;7.80;73.35;96577.84;4910091;29;20606;-74
2023/03/25 04:23:41;;;;;;;14.30;11.17;;;;;;;7.85;72.96;96590.53;4911585;29;20310;-76
2023/03/25 04:26:08;;;;;;;15.77;11.10;;;;;;;7.94;72.59;96596.13;4910324;29;20573;-75
2023/03/25 04:28:35;;;;;;;14.47;11.70;;;;;;;7.95;73.54;96587.50;4911575;29;20245;-75
2023/03/25 04:31:04;;;;;;;16.00;11.30;;;;;;;8.03;73.31;96595.75;4911133;29;20705;-74
2023/03/25 04:33:31;;;;;;;14.53;10.63;;;;;;;7.98;72.54;96589.09;4908896;29;20201;-74
2023/03/25 04:36:00;;;;;;;14.73;11.17;;;;;;;8.00;72.80;96601.03;4911538;29;20320;-76
2023/03/25 04:38:28;;;;;;;13.87;10.80;;;;;;;7.97;73.03;96603.75;4909817;29;20190;-75
2023/03/25 04:40:55;;;;;;;16.57;12.37;;;;;;;8.00;72.83;96606.19;4917901;29;20221;-75
2023/03/25 04:43:22;;;;;;;18.33;12.23;;;;;;;7.61;72.67;96587.22;4929227;29;20186;-74
2023/03/25 04:45:52;;;;;;;17.53;12.37;;;;;;;7.50;73.88;96615.16;4930665;29;21121;-74
2023/03/25 04:48:24;;;;;;;16.57;12.43;;;;;;;7.67;75.22;96615.31;4929909;29;20255;-74
2023/03/25 04:50:51;;;;;;;14.57;11.07;;;;;;;7.82;73.79;96613.84;4929181;29;20249;-75
2023/03/25 04:53:18;;;;;;;16.10;11.77;;;;;;;7.96;73.29;96614.94;4930530;29;20190;-76
2023/03/25 04:55:48;;;;;;;16.57;12.30;;;;;;;8.26;71.93;96617.16;4928681;29;20217;-75
2023/03/25 04:58:16;;;;;;;17.13;11.50;;;;;;;8.23;71.90;96618.94;4930376;29;20200;-75
2023/03/25 05:00:45;;;;;;;12.80;9.80;;;;;;;8.16;71.98;96614.94;4932549;29;20194;-77
2023/03/25 05:03:14;;;;;;;15.33;10.47;;;;;;;8.11;71.59;96619.47;4916425;29;20202;-75
2023/03/25 05:05:41;;;;;;;15.23;10.27;;;;;;;8.16;71.70;96604.63;4917063;29;20198;-77
2023/03/25 05:08:10;;;;;;;9.57;7.90;;;;;;;8.10;72.18;96604.03;4916246;29;20186;-74
2023/03/25 05:10:37;;;;;;;12.27;9.43;;;;;;;8.26;71.22;96599.09;4916709;29;20197;-74
2023/03/25 05:13:06;;;;;;;13.90;9.20;;;;;;;8.28;72.15;96615.34;4898062;29;20217;-75
2023/03/25 05:15:38;;;;;;;17.97;10.90;;;;;;;8.05;72.95;96624.88;4916130;29;20226;-78
2023/03/25 05:18:10;;;;;;;11.73;8.83;;;;;;;7.86;74.38;96623.97;4914301;29;20182;-78
2023/03/25 05:20:38;;;;;;;11.83;9.57;;;;;;;7.81;74.31;96610.44;4914439;29;20199;-75
2023/03/25 05:23:10;;;;;;;12.47;8.87;;;;;;;7.82;74.20;96601.81;4914355;29;20223;-76
2023/03/25 05:25:39;;;;;;;10.07;7.90;;;;;;;8.06;73.82;96603.34;4913323;29;20233;-78
2023/03/25 05:28:08;;;;;;;10.73;7.70;;;;;;;7.98;72.45;96564.16;4914660;29;20622;-74
2023/03/25 05:30:40;;;;;;;9.17;7.17;;;;;;;8.46;71.84;96614.53;4927846;29;20183;-78
2023/03/25 05:33:11;;;;;;;14.30;9.40;;;;;;;8.56;71.91;96600.31;4913917;29;20241;-78
2023/03/25 05:35:38;;;;;;;11.67;8.07;;;;;;;8.90;70.56;96601.28;4913251;29;20217;-80
2023/03/25 05:38:11;;;;;;;15.10;8.73;;;;;;;9.11;70.15;96603.81;4914060;29;20224;-77
2023/03/25 05:40:39;;;;;;;11.37;8.73;;;;;;;9.01;69.80;96603.38;4914895;29;20198;-80
2023/03/25 05:43:06;;;;;;;11.63;7.97;;;;;;;9.26;69.87;96596.16;4914788;29;20222;-80
2023/03/25 05:45:37;;;;;;;9.00;6.90;;;;;;;9.41;68.58;96594.59;4914770;29;20630;-78
2023/03/25 05:48:04;;;;;;;13.27;8.37;;;;;;;9.53;68.33;96607.75;4913041;29;20631;-77
2023/03/25 05:50:31;;;;;;;10.37;7.97;;;;;;;9.69;68.18;96608.69;4899483;29;20649;-75
2023/03/25 05:52:58;;;;;;;11.37;8.73;;;;;;;9.75;68.04;96603.19;4921873;29;20225;-78
2023/03/25 05:55:26;;;;;;;13.73;8.73;;;;;;;9.84;67.66;96602.75;4924391;29;20558;-76
2023/03/25 05:57:55;;;;;;;14.93;9.97;;;;;;;10.02;67.18;96601.00;4918689;29;20209;-75
2023/03/25 06:00:23;;;;;;;12.37;8.90;;;;;;;10.23;66.92;96596.50;4917205;29;20670;-76
2023/03/25 06:02:50;;;;;;;9.50;7.90;;;;;;;10.38;66.21;96599.16;4918479;29;20277;-77
2023/03/25 06:05:22;;;;;;;11.50;8.30;;;;;;;10.34;65.86;96582.13;4915271;29;21242;-75
2023/03/25 06:07:50;;;;;;;10.67;8.43;;;;;;;10.56;65.45;96598.19;4915169;29;20210;-78
2023/03/25 06:10:18;;;;;;;10.57;7.47;;;;;;;10.69;64.96;96597.53;4913352;29;20200;-77
2023/03/25 06:12:46;;;;;;;12.63;9.33;;;;;;;10.99;64.92;96590.69;4912358;29;20186;-78
2023/03/25 06:15:16;;;;;;;11.50;8.80;;;;;;;11.13;64.31;96591.59;4896649;29;20202;-75
2023/03/25 06:17:46;;;;;;;12.60;8.23;;;;;;;11.17;64.15;96598.28;4911859;29;20259;-73
2023/03/25 06:20:15;;;;;;;12.67;8.90;;;;;;;11.26;63.45;96599.53;4913396;29;20224;-75
2023/03/25 06:22:44;;;;;;;10.53;8.13;;;;;;;11.42;63.65;96595.16;4911754;29;20211;-75
2023/03/25 06:25:16;;;;;;;14.20;10.03;;;;;;;11.72;62.48;96597.84;4913336;29;20209;-81
2023/03/25 06:27:48;;;;;;;17.93;11.60;;;;;;;11.99;61.38;96601.44;4913197;29;20183;-80
2023/03/25 06:30:20;;;;;;;13.77;9.03;;;;;;;12.06;61.05;96592.34;4912628;29;20281;-79
2023/03/25 06:32:49;;;;;;;13.23;9.63;;;;;;;12.35;61.08;96604.44;4913177;29;20197;-80
2023/03/25 06:35:18;;;;;;;11.27;8.43;;;;;;;12.11;60.84;96604.16;4911721;29;20207;-81
2023/03/25 06:37:48;;;;;;;11.20;8.27;;;;;;;12.03;60.60;96597.72;4913173;29;20309;-79
2023/03/25 06:40:36;;;;;;;13.33;9.40;;;;;;;12.11;60.91;96600.72;4914260;29;20204;-81
2023/03/25 06:43:04;;;;;;;13.17;9.17;;;;;;;12.13;60.96;96578.09;4895905;29;20191;-80
2023/03/25 06:46:04;;;;;;;13.00;8.00;;;;;;;12.50;60.67;96595.75;4895920;29;20250;-77
2023/03/25 06:49:04;;;;;;;15.60;9.00;;;;;;;12.52;60.37;96585.25;4864084;29;20624;-80
2023/03/25 06:51:31;;;;;;;17.13;10.13;;;;;;;12.70;59.87;96584.97;4912601;29;20196;-75
2023/03/25 06:53:58;;;;;;;13.03;9.57;;;;;;;13.02;59.27;96596.78;4895483;29;20223;-80
2023/03/25 06:56:25;;;;;;;16.07;9.40;;;;;;;13.13;58.94;96582.34;4911050;29;20287;-78
2023/03/25 06:58:52;;;;;;;17.13;10.13;;;;;;;13.39;58.14;96586.72;4912335;29;20195;-81
2023/03/25 07:01:19;;;;;;;15.53;9.40;;;;;;;13.50;57.42;96582.47;4910771;29;20196;-80
2023/03/25 07:03:46;;;;;;;15.30;8.60;;;;;;;13.83;57.34;96595.06;4912254;29;20198;-79
2023/03/25 07:06:19;;;;;;;15.23;9.00;;;;;;;13.80;56.36;96590.91;4911578;29;20195;-81
2023/03/25 07:08:46;;;;;;;15.93;11.60;;;;;;;13.91;56.24;96584.97;4895613;29;20198;-80
2023/03/25 07:11:16;;;;;;;11.03;8.53;;;;;;;13.94;56.07;96608.22;4913020;29;20195;-78
2023/03/25 07:13:42;;;;;;;11.90;8.43;;;;;;;14.04;55.67;96598.88;4912634;29;20297;-79
2023/03/25 07:16:10;;;;;;;9.87;7.83;;;;;;;13.94;56.15;96576.97;4914368;29;20227;-78
2023/03/25 07:18:40;;;;;;;12.70;7.77;;;;;;;14.08;56.09;96589.91;4912150;29;20443;-77
2023/03/25 07:21:07;;;;;;;13.63;8.20;;;;;;;14.17;55.35;96576.28;4912429;29;20564;-76
2023/03/25 07:23:34;;;;;;;8.77;7.33;;;;;;;14.47;54.81;96584.66;4911113;29;20707;-79
2023/03/25 07:26:01;;;;;;;10.17;7.87;;;;;;;14.48;54.60;96577.66;4911517;29;20253;-80
2023/03/25 07:28:28;;;;;;;12.30;8.47;;;;;;;14.50;54.40;96581.00;4926391;29;20194;-78
2023/03/25 07:30:55;;;;;;;10.27;7.80;;;;;;;14.49;54.43;96590.59;4910406;29;20619;-76
2023/03/25 07:33:22;;;;;;;10.53;7.70;;;;;;;14.58;54.24;96579.53;4910679;29;20199;-77
2023/03/25 07:35:49;;;;;;;11.67;8.23;;;;;;;14.87;53.54;96581.91;4909997;29;20685;-79
2023/03/25 07:38:16;;;;;;;10.93;8.40;;;;;;;15.05;53.19;96584.03;4912961;29;20278;-75
2023/03/25 07:40:43;;;;;;;12.33;7.83;;;;;;;15.11;52.73;96577.53;4910524;29;20190;-75
2023/03/25 07:43:15;;;;;;;12.83;7.63;;;;;;;15.31;51.89;96571.75;4919522;29;20665;-75
2023/03/25 07:45:52;;;;;;;15.17;7.73;;;;;;;15.25;52.38;96561.78;4913257;29;20193;-75
2023/03/25 07:48:21;;;;;;;16.60;7.00;;;;;;;15.30;51.78;96575.31;4928853;29;20209;-76
2023/03/25 07:50:50;;;;;;;8.93;6.80;;;;;;;15.26;52.14;96574.69;4930768;29;20198;-76
2023/03/25 07:53:18;;;;;;;8.60;6.47;;;;;;;15.50;52.12;96577.31;4912509;29;20194;-77
2023/03/25 07:55:45;;;;;;;11.30;7.00;;;;;;;15.68;51.46;96568.19;4929281;29;20249;-75
2023/03/25 07:58:12;;;;;;;11.03;6.70;;;;;;;15.67;51.25;96576.09;4929054;29;20251;-75
2023/03/25 08:00:39;;;;;;;10.77;6.50;;;;;;;15.66;50.80;96564.81;4912810;29;20204;-74
2023/03/25 08:03:06;;;;;;;11.37;6.83;;;;;;;15.87;50.73;96565.84;4930421;29;20221;-78
2023/03/25 08:05:33;;;;;;;7.30;6.00;;;;;;;16.04;50.07;96565.44;4927721;29;20195;-79
2023/03/25 08:08:00;;;;;;;14.83;6.77;;;;;;;16.21;50.58;96570.25;4930435;29;20194;-77
2023/03/25 08:10:27;;;;;;;9.73;6.97;;;;;;;16.39;49.52;96554.09;4928402;29;20224;-76
2023/03/25 08:12:54;;;;;;;7.33;5.07;;;;;;;16.40;47.75;96555.78;4929956;29;20191;-76
2023/03/25 08:15:23;;;;;;;7.43;5.27;;;;;;;16.17;47.38;96539.22;4912134;29;20586;-79
2023/03/25 08:17:51;;;;;;;7.30;5.27;;;;;;;16.23;48.68;96555.28;4912319;29;20230;-78
2023/03/25 08:20:18;;;;;;;6.77;4.97;;;;;;;16.43;48.21;96560.75;4914086;29;20233;-76
2023/03/25 08:22:46;;;;;;;5.17;4.57;;;;;;;16.56;47.64;96553.66;4909670;29;20225;-81
2023/03/25 08:25:13;;;;;;;7.10;5.37;;;;;;;16.64;47.74;96549.50;4911026;29;20195;-78
2023/03/25 08:27:40;;;;;;;7.77;5.63;;;;;;;16.59;48.09;96540.38;4910008;29;20359;-80
2023/03/25 08:30:09;;;;;;;6.53;4.70;;;;;;;16.54;47.57;96555.56;4910824;29;20243;-76
2023/03/25 08:32:37;;;;;;;6.30;4.80;;;;;;;16.81;47.52;96550.81;4892113;29;20366;-80
2023/03/25 08:35:05;;;;;;;16.47;10.53;;;;;;;17.11;47.22;96545.78;4910355;29;20273;-80
2023/03/25 08:37:34;;;;;;;5.47;4.80;;;;;;;17.02;46.63;96531.63;4911025;29;20275;-81
2023/03/25 08:40:06;;;;;;;5.67;4.50;;;;;;;17.14;46.24;96540.31;4909828;29;20258;-80
2023/03/25 08:42:33;;;;;;;33.83;15.83;;;;;;;17.35;49.04;96535.94;4910902;29;20385;-80
2023/03/25 08:44:59;;;;;;;7.67;5.63;;;;;;;17.44;45.86;96540.47;4909431;29;20191;-76
2023/03/25 08:47:27;;;;;;;6.77;5.00;;;;;;;17.61;45.29;96532.09;4893594;29;20188;-78
2023/03/25 08:49:54;;;;;;;6.60;5.07;;;;;;;17.61;45.03;96500.69;4892418;29;20196;-78
2023/03/25 08:52:21;;;;;;;10.30;5.73;;;;;;;17.75;45.08;96523.94;4893685;29;20291;-78
2023/03/25 08:54:48;;;;;;;6.57;4.70;;;;;;;17.77;45.09;96519.41;4893457;29;20209;-80
2023/03/25 08:57:15;;;;;;;5.43;4.53;;;;;;;17.54;45.21;96512.59;4891889;29;20644;-81
2023/03/25 08:59:43;;;;;;;7.27;4.77;;;;;;;17.36;45.61;96480.03;4893856;29;20210;-78
2023/03/25 09:02:11;;;;;;;6.73;4.77;;;;;;;17.46;45.56;96507.13;4892126;29;20193;-77
2023/03/25 09:04:38;;;;;;;7.87;5.90;;;;;;;17.55;45.83;96490.72;4910617;29;20208;-81
2023/03/25 09:07:09;;;;;;;7.43;5.40;;;;;;;17.64;45.55;96492.56;4909246;29;20591;-81
2023/03/25 09:09:39;;;;;;;8.43;6.13;;;;;;;17.98;45.92;96502.84;4910438;29;20367;-81
2023/03/25 09:12:06;;;;;;;11.17;6.60;;;;;;;18.16;44.82;96496.06;4910434;29;20238;-81
2023/03/25 09:14:33;;;;;;;12.00;7.47;;;;;;;18.26;44.70;96494.34;4892449;29;20643;-80
2023/03/25 09:17:00;;;;;;;6.73;4.63;;;;;;;18.26;44.38;96484.69;4910798;29;20263;-77
2023/03/25 09:19:27;;;;;;;8.97;6.93;;;;;;;18.30;44.49;96475.59;4908906;29;20268;-80
2023/03/25 09:21:54;;;;;;;8.03;5.57;;;;;;;18.47;44.21;96479.41;4911071;29;20232;-75
2023/03/25 09:24:23;;;;;;;11.23;6.70;;;;;;;18.56;44.49;96465.53;4892430;29;20229;-79
2023/03/25 09:26:50;;;;;;;7.17;4.57;;;;;;;18.71;43.50;96481.72;4893199;29;20271;-80
2023/03/25 09:29:17;;;;;;;9.03;4.90;;;;;;;18.72;43.70;96476.34;4910247;29;20296;-83
2023/03/25 09:31:44;;;;;;;11.20;5.80;;;;;;;18.95;43.30;96483.03;4892661;29;20635;-82
2023/03/25 09:34:11;;;;;;;6.43;4.07;;;;;;;18.83;43.25;96478.88;4910799;29;20197;-81
2023/03/25 09:36:39;;;;;;;7.70;4.60;;;;;;;18.98;43.22;96469.63;4909641;29;20230;-77
2023/03/25 09:39:05;;;;;;;7.37;4.50;;;;;;;19.03;43.17;96466.59;4910632;29;20291;-76
2023/03/25 09:41:54;;;;;;;5.03;4.30;;;;;;;19.10;42.55;96458.03;4909139;29;20213;-78
2023/03/25 09:44:27;;;;;;;8.77;5.43;;;;;;;19.08;43.09;96449.47;4910094;29;20524;-81
2023/03/25 09:46:58;;;;;;;5.27;4.33;;;;;;;18.99;42.35;96450.31;4913399;29;20655;-78
2023/03/25 09:49:36;;;;;;;6.83;4.70;;;;;;;19.08;42.73;96446.84;4912361;29;20198;-79
2023/03/25 09:52:09;;;;;;;4.83;4.33;;;;;;;18.89;42.76;96444.22;4897016;29;20198;-75
2023/03/25 09:54:48;;;;;;;4.63;4.10;;;;;;;18.89;42.44;96443.38;4912117;29;20289;-77
2023/03/25 09:57:20;;;;;;;6.23;4.63;;;;;;;18.99;42.55;96431.94;4912830;29;20578;-80
2023/03/25 09:59:50;;;;;;;7.60;5.00;;;;;;;19.22;41.83;96420.22;4913557;29;20190;-75
2023/03/25 10:02:39;;;;;;;5.57;4.57;;;;;;;19.14;41.87;96430.59;4911956;29;20700;-81
2023/03/25 10:05:32;;;;;;;8.00;4.90;;;;;;;19.26;41.58;96426.84;4913829;29;20641;-77
2023/03/25 10:08:12;;;;;;;9.83;4.50;;;;;;;19.48;41.32;96413.47;4913237;29;20206;-81
2023/03/25 10:11:19;;;;;;;11.30;4.77;;;;;;;19.56;41.30;96396.19;4912476;29;20202;-78
2023/03/25 10:13:55;;;;;;;5.77;4.00;;;;;;;19.79;40.27;96413.25;4894410;29;20228;-78
2023/03/25 10:16:34;;;;;;;6.83;4.93;;;;;;;19.96;39.73;96407.28;4912448;29;20194;-80
2023/03/25 10:19:38;;;;;;;9.73;6.00;;;;;;;20.04;39.95;96400.34;4911836;29;20209;-79
2023/03/25 10:22:06;;;;;;;8.03;4.80;;;;;;;20.31;39.98;96398.75;4894461;29;20290;-76
2023/03/25 10:25:18;;;;;;;5.97;3.97;;;;;;;20.29;39.09;96393.63;4908300;29;20218;-78
2023/03/25 10:28:42;;;;;;;13.77;6.17;;;;;;;20.40;39.18;96390.81;4910831;29;20214;-77
2023/03/25 10:31:26;;;;;;;6.27;4.90;;;;;;;20.34;38.48;96380.06;4912268;29;20194;-79
2023/03/25 10:33:56;;;;;;;8.27;5.70;;;;;;;20.56;38.37;96382.28;4912447;29;20208;-81
2023/03/25 10:36:39;;;;;;;7.33;4.30;;;;;;;20.72;37.58;96379.81;4896544;29;20217;-77
2023/03/25 10:39:19;;;;;;;7.20;4.47;;;;;;;20.85;37.88;96375.03;4895782;29;20642;-77
2023/03/25 10:42:18;;;;;;;9.37;5.03;;;;;;;20.81;37.77;96371.84;4911293;29;20190;-78
2023/03/25 10:44:46;;;;;;;6.20;4.50;;;;;;;20.95;37.82;96367.91;4910378;29;20204;-82
2023/03/25 10:47:18;;;;;;;6.23;4.40;;;;;;;21.01;37.13;96356.75;4895743;29;20254;-79
2023/03/25 10:49:48;;;;;;;7.93;4.50;;;;;;;21.06;36.95;96359.81;4894079;29;20689;-80
2023/03/25 10:52:15;;;;;;;5.63;4.33;;;;;;;20.93;37.19;96348.78;4911742;29;20275;-80
2023/03/25 10:54:51;;;;;;;4.90;3.70;;;;;;;20.86;37.13;96348.56;4929861;29;20195;-79
2023/03/25 10:57:24;;;;;;;4.63;3.80;;;;;;;20.90;37.12;96335.91;4931219;29;20690;-80
2023/03/25 11:00:03;;;;;;;7.03;3.90;;;;;;;21.03;37.43;96333.78;4930754;29;20221;-79
2023/03/25 11:02:32;;;;;;;6.03;5.13;;;;;;;21.21;37.33;96317.94;4930522;29;20806;-80
2023/03/25 11:05:03;;;;;;;7.50;4.53;;;;;;;21.15;37.40;96322.03;4906258;29;20214;-78
2023/03/25 11:07:37;;;;;;;8.07;4.37;;;;;;;21.32;37.18;96315.91;4893399;29;20216;-77
2023/03/25 11:10:24;;;;;;;6.93;3.97;;;;;;;21.27;36.95;96314.72;4895391;29;20278;-79
2023/03/25 11:12:53;;;;;;;5.72;4.22;;;;;;;21.06;37.97;96302.69;4910316;29;20440;-79
2023/03/25 11:15:40;;;;;;;6.07;3.97;;;;;;;21.16;37.56;96292.09;4912209;29;20669;-80
2023/03/25 11:18:29;;;;;;;5.37;4.33;;;;;;;21.35;37.41;96294.50;4921788;29;20219;-76
2023/03/25 11:21:03;;;;;;;6.27;4.20;;;;;;;21.55;36.97;96311.81;4914962;29;20200;-80
2023/03/25 11:23:32;;;;;;;7.80;4.20;;;;;;;21.58;37.29;96303.56;4919754;29;20199;-79
2023/03/25 11:26:12;;;;;;;6.43;4.40;;;;;;;21.58;37.78;96295.66;4911029;29;20230;-79
2023/03/25 11:28:51;;;;;;;7.50;4.33;;;;;;;21.44;37.83;96292.75;4910669;29;20302;-81
2023/03/25 11:31:22;;;;;;;7.30;4.33;;;;;;;21.56;37.50;96280.97;4911723;29;20230;-77
2023/03/25 11:34:11;;;;;;;5.73;4.27;;;;;;;21.70;37.37;96290.97;4877875;29;20687;-75
2023/03/25 11:36:57;;;;;;;6.50;4.60;;;;;;;21.59;37.17;96270.16;4894321;29;20187;-77
2023/03/25 11:39:38;;;;;;;6.63;4.33;;;;;;;21.70;36.93;96281.22;4911970;29;20207;-79
2023/03/25 11:42:51;;;;;;;5.70;3.80;;;;;;;21.12;38.26;96268.84;4910027;29;20214;-79
2023/03/25 11:45:22;;;;;;;5.83;4.47;;;;;;;21.47;37.73;96281.94;4911240;29;20195;-80
2023/03/25 11:47:50;;;;;;;4.97;4.47;;;;;;;21.70;37.34;96270.69;4911546;29;20283;-78
2023/03/25 11:50:27;;;;;;;7.83;4.23;;;;;;;21.93;36.86;96280.75;4909953;29;20255;-78
2023/03/25 11:52:57;;;;;;;5.97;4.13;;;;;;;21.70;38.15;96275.16;4894698;29;21070;-80